Time;durP1;ratioP1;P1;durP2;ratioP2;P2;SDS_P1;SDS_P2;PMS_P1;PMS_P2;Temp;Humidity;BMP_temperature;BMP_pressure;BME280_temperature;BME280_humidity;BME280_pressure;Samples;Min_cycle;Max_cycle;Signal;HPM_P1;HPM_P2
2022/08/10 00:01:38;;;;;;;;;8.75;7.25;;;;;26.77;26.19;101684.53;5080841;28;45385;-60
2022/08/10 00:04:04;;;;;;;;;6.00;6.00;;;;;26.77;26.35;101683.69;5060782;27;45749;-60
2022/08/10 00:06:29;;;;;;;;;10.50;7.50;;;;;26.73;26.41;101685.72;5060799;28;45509;-60
2022/08/10 00:08:55;;;;;;;;;8.75;8.00;;;;;26.73;26.32;101682.16;5059212;28;47963;-60
2022/08/10 00:11:20;;;;;;;;;9.00;6.75;;;;;26.70;27.00;101679.66;5060658;28;45252;-60
2022/08/10 00:13:46;;;;;;;;;7.50;7.25;;;;;26.66;26.73;101678.97;5060742;28;45367;-60
2022/08/10 00:16:12;;;;;;;;;7.25;7.25;;;;;26.64;26.49;101677.38;5059119;28;45264;-60
2022/08/10 00:18:37;;;;;;;;;9.75;8.75;;;;;26.60;26.83;101676.69;5074660;28;47576;-59
2022/08/10 00:21:05;;;;;;;;;8.50;7.75;;;;;26.57;26.83;101674.22;5058457;28;45271;-59
2022/08/10 00:23:31;;;;;;;;;5.25;5.25;;;;;26.53;26.71;101675.41;5059324;28;45437;-59
2022/08/10 00:25:56;;;;;;;;;8.00;8.00;;;;;26.50;26.77;101676.44;5072822;28;45373;-59
2022/08/10 00:28:21;;;;;;;;;7.00;7.00;;;;;26.43;26.83;101676.00;5080578;28;45241;-59
2022/08/10 00:30:47;;;;;;;;;8.00;8.00;;;;;26.42;27.52;101676.13;5080612;28;45315;-59
2022/08/10 00:33:12;;;;;;;;;8.00;8.00;;;;;26.41;26.75;101675.28;5060992;28;45337;-60
2022/08/10 00:35:37;;;;;;;;;8.75;7.25;;;;;26.39;27.38;101676.31;5071426;28;45378;-59
2022/08/10 00:38:03;;;;;;;;;8.50;8.00;;;;;26.33;27.50;101668.66;5061166;28;46853;-59
2022/08/10 00:40:28;;;;;;;;;6.25;6.25;;;;;26.31;27.37;101667.88;5071220;28;45405;-59
2022/08/10 00:42:53;;;;;;;;;8.00;7.00;;;;;26.25;27.71;101672.72;5080639;28;45300;-60
2022/08/10 00:45:19;;;;;;;;;8.25;7.00;;;;;26.24;27.23;101675.53;5068279;28;45488;-60
2022/08/10 00:47:44;;;;;;;;;9.50;8.25;;;;;26.22;27.22;101672.91;5077523;28;46615;-59
2022/08/10 00:50:09;;;;;;;;;8.00;8.00;;;;;26.19;27.53;101670.44;5073776;28;45840;-60
2022/08/10 00:52:36;;;;;;;;;12.75;9.75;;;;;26.12;27.80;101669.09;5078129;28;45791;-59
2022/08/10 00:55:03;;;;;;;;;9.50;9.25;;;;;26.10;27.24;101668.31;5080595;28;45607;-59
2022/08/10 00:57:29;;;;;;;;;8.25;7.50;;;;;26.10;28.02;101668.31;5079895;28;46141;-60
2022/08/10 00:59:54;;;;;;;;;8.50;8.00;;;;;26.06;27.51;101667.69;5067134;28;45233;-59
2022/08/10 01:02:20;;;;;;;;;8.25;6.50;;;;;26.02;27.44;101667.94;5073521;28;45278;-60
2022/08/10 01:04:46;;;;;;;;;10.25;8.00;;;;;26.00;27.96;101673.44;5059809;28;45439;-60
2022/08/10 01:07:43;;;;;;;;;5.75;5.50;;;;;25.98;28.06;101674.50;5059554;28;46097;-60
2022/08/10 01:10:24;;;;;;;;;8.75;8.75;;;;;25.96;27.55;101672.78;5059886;28;45280;-60
2022/08/10 01:12:59;;;;;;;;;8.00;7.00;;;;;25.94;28.36;101676.53;5059701;28;45251;-59
2022/08/10 01:15:35;;;;;;;;;7.00;7.00;;;;;25.90;28.33;101669.59;5061175;28;45235;-59
2022/08/10 01:18:07;;;;;;;;;8.00;8.00;;;;;25.86;27.83;101666.25;5063004;28;46228;-59
2022/08/10 01:21:01;;;;;;;;;7.25;7.25;;;;;25.85;28.27;101669.91;5063086;28;45239;-60
2022/08/10 01:24:03;;;;;;;;;7.00;6.00;;;;;25.82;27.94;101674.63;5062048;28;45329;-60
2022/08/10 01:26:49;;;;;;;;;11.50;10.00;;;;;25.79;28.33;101676.53;5062513;28;45437;-59
2022/08/10 01:29:39;;;;;;;;;8.00;8.00;;;;;25.78;27.99;101671.25;5063182;28;46141;-59
2022/08/10 01:32:08;;;;;;;;;9.50;7.50;;;;;25.74;28.51;101673.28;5072001;28;45235;-60
2022/08/10 01:35:01;;;;;;;;;7.25;6.00;;;;;25.70;28.20;101669.06;5083369;28;45431;-60
2022/08/10 01:37:33;;;;;;;;;7.00;5.00;;;;;25.67;28.21;101671.06;5083004;28;45592;-59
2022/08/10 01:40:03;;;;;;;;;8.00;8.00;;;;;25.66;28.38;101672.03;5083342;28;45536;-60
2022/08/10 01:42:33;;;;;;;;;10.00;9.00;;;;;25.63;28.50;101667.72;5068167;28;45835;-60
2022/08/10 01:45:03;;;;;;;;;8.25;8.00;;;;;25.60;28.41;101662.53;5083513;28;45161;-59
2022/08/10 01:50:28;;;;;;;;;8.00;6.75;;;;;25.52;28.65;101659.47;5073773;28;45839;-60
2022/08/10 01:53:01;;;;;;;;;6.50;5.75;;;;;25.50;28.89;101674.81;5063104;28;45264;-59
2022/08/10 01:55:28;;;;;;;;;8.75;7.25;;;;;25.45;28.77;101664.38;5062758;28;45317;-60
2022/08/10 01:57:55;;;;;;;;;7.25;7.25;;;;;25.43;28.76;101664.47;5061311;28;45327;-60
2022/08/10 02:00:21;;;;;;;;;7.25;7.25;;;;;25.42;28.90;101659.16;5061156;28;46402;-60
2022/08/10 02:02:50;;;;;;;;;9.75;8.00;;;;;25.38;28.67;101661.19;5070002;28;45410;-60
2022/08/10 02:05:17;;;;;;;;;7.00;7.00;;;;;25.35;28.99;101650.59;5062665;28;45384;-60
2022/08/10 02:07:45;;;;;;;;;9.00;8.50;;;;;25.35;29.14;101655.97;5062740;28;45244;-60
2022/08/10 02:10:13;;;;;;;;;10.00;9.00;;;;;25.34;28.94;101662.31;5062351;28;45258;-60
2022/08/10 02:12:41;;;;;;;;;7.50;7.50;;;;;25.29;28.87;101664.41;5062587;28;45490;-60
2022/08/10 02:15:15;;;;;;;;;6.75;6.75;;;;;25.28;28.79;101666.25;5062545;28;45225;-60
2022/08/10 02:17:54;;;;;;;;;7.00;6.25;;;;;25.24;29.33;101664.69;5062176;28;45676;-60
2022/08/10 02:20:23;;;;;;;;;6.75;6.75;;;;;25.22;29.16;101658.56;5061969;28;45347;-60
2022/08/10 02:22:55;;;;;;;;;10.75;8.75;;;;;25.15;29.25;101655.38;5062128;28;45388;-60
2022/08/10 02:25:23;;;;;;;;;6.75;6.50;;;;;25.15;28.97;101663.44;5061130;28;45307;-60
2022/08/10 02:27:51;;;;;;;;;8.00;8.00;;;;;25.11;29.21;101669.97;5061441;28;45538;-60
2022/08/10 02:30:17;;;;;;;;;10.25;10.25;;;;;25.10;29.35;101659.31;5062126;28;46198;-60
2022/08/10 02:32:44;;;;;;;;;9.00;9.00;;;;;25.07;29.22;101662.19;5061913;28;45216;-60
2022/08/10 02:35:12;;;;;;;;;8.75;8.75;;;;;25.02;29.17;101662.47;5062237;28;45269;-60
2022/08/10 02:37:42;;;;;;;;;8.00;8.00;;;;;24.98;29.80;101656.41;5061958;28;45363;-60
2022/08/10 02:40:09;;;;;;;;;7.00;7.00;;;;;24.96;29.28;101663.69;5044044;28;46436;-60
2022/08/10 02:42:59;;;;;;;;;11.75;7.00;;;;;24.93;29.75;101663.03;5061775;28;45520;-60
2022/08/10 02:45:30;;;;;;;;;7.00;6.00;;;;;24.89;29.57;101654.31;5062190;28;45331;-60
2022/08/10 02:48:17;;;;;;;;;8.00;8.00;;;;;24.87;29.44;101648.16;5061911;28;45605;-60
2022/08/10 02:50:54;;;;;;;;;10.00;9.00;;;;;24.85;29.40;101657.25;5063544;28;45988;-60
2022/08/10 02:53:36;;;;;;;;;10.50;9.00;;;;;24.81;29.57;101662.81;5082053;27;45338;-60
2022/08/10 02:56:06;;;;;;;;;10.50;9.50;;;;;24.79;29.81;101666.53;5082199;28;45313;-60
2022/08/10 02:59:01;;;;;;;;;9.00;9.00;;;;;24.76;29.56;101661.38;5081943;28;45228;-60
2022/08/10 03:01:32;;;;;;;;;9.75;9.00;;;;;24.74;29.84;101672.22;5053633;28;45317;-60
2022/08/10 03:04:02;;;;;;;;;7.50;6.00;;;;;24.72;29.69;101657.13;5060885;28;45475;-60
2022/08/10 03:06:36;;;;;;;;;6.75;6.75;;;;;24.71;29.94;101674.22;5074247;28;45310;-60
2022/08/10 03:09:05;;;;;;;;;7.50;6.00;;;;;24.68;29.80;101672.56;5082044;28;45272;-60
2022/08/10 03:11:33;;;;;;;;;7.00;6.25;;;;;24.66;30.42;101669.09;5081768;28;46208;-60
2022/08/10 03:14:00;;;;;;;;;8.00;8.00;;;;;24.63;29.86;101670.13;5081864;28;45539;-60
2022/08/10 03:16:28;;;;;;;;;9.00;9.00;;;;;24.60;29.94;101664.94;5081882;27;45294;-60
2022/08/10 03:18:54;;;;;;;;;7.75;7.00;;;;;24.57;29.90;101662.41;5081451;28;45187;-60
2022/08/10 03:21:22;;;;;;;;;9.50;8.75;;;;;24.54;30.25;101659.03;5081572;28;45248;-60
2022/08/10 03:23:50;;;;;;;;;7.75;7.75;;;;;24.51;29.95;101660.09;5080347;28;45261;-60
2022/08/10 03:26:16;;;;;;;;;7.25;7.25;;;;;24.50;30.44;101661.03;5081831;28;45338;-60
2022/08/10 03:28:42;;;;;;;;;7.50;7.50;;;;;24.48;30.28;101653.06;5081512;28;45684;-60
2022/08/10 03:31:08;;;;;;;;;7.75;7.75;;;;;24.44;30.45;101651.53;5080082;28;48126;-60
2022/08/10 03:33:37;;;;;;;;;8.00;8.00;;;;;24.41;30.11;101645.47;5081642;28;45298;-60
2022/08/10 03:36:03;;;;;;;;;7.25;6.50;;;;;24.42;30.21;101666.88;5081445;28;45345;-60
2022/08/10 03:38:29;;;;;;;;;10.00;9.50;;;;;24.36;30.43;101656.47;5080141;28;45300;-60
2022/08/10 03:40:57;;;;;;;;;7.75;7.75;;;;;24.37;30.39;101660.03;5081147;28;45283;-60
2022/08/10 03:43:25;;;;;;;;;6.25;6.25;;;;;24.35;30.34;101670.84;5080316;28;46502;-60
2022/08/10 03:45:57;;;;;;;;;7.75;7.75;;;;;24.33;30.62;101662.88;5080084;28;45209;-60
2022/08/10 03:48:25;;;;;;;;;11.00;10.00;;;;;24.33;30.58;101659.34;5080169;28;45551;-60
2022/08/10 03:50:52;;;;;;;;;8.75;8.00;;;;;24.30;30.71;101660.41;5070856;28;45422;-60
2022/08/10 03:53:19;;;;;;;;;8.25;8.25;;;;;24.27;30.52;101660.56;5070628;28;45436;-60
2022/08/10 03:55:44;;;;;;;;;10.00;8.00;;;;;24.26;30.65;101666.88;5061025;28;45360;-60
2022/08/10 03:58:11;;;;;;;;;5.50;5.25;;;;;24.25;30.60;101661.59;5060719;28;45499;-60
2022/08/10 04:00:37;;;;;;;;;8.00;8.00;;;;;24.24;30.48;101663.44;5060562;28;46735;-60
2022/08/10 04:03:04;;;;;;;;;7.25;6.50;;;;;24.15;31.00;101656.78;5068223;28;45418;-60
2022/08/10 04:05:31;;;;;;;;;8.50;7.00;;;;;24.21;30.77;101668.13;5060489;28;45231;-60
2022/08/10 04:08:01;;;;;;;;;6.00;6.00;;;;;24.18;31.00;101661.09;5060902;28;45294;-60
2022/08/10 04:10:26;;;;;;;;;9.25;9.25;;;;;24.17;30.78;101679.00;5060337;28;46286;-60
2022/08/10 04:12:51;;;;;;;;;9.00;7.00;;;;;24.16;30.92;101676.41;5067772;28;45190;-60
2022/08/10 04:15:18;;;;;;;;;8.50;7.25;;;;;24.11;30.73;101673.13;5060647;28;45431;-60
2022/08/10 04:17:43;;;;;;;;;7.75;7.75;;;;;24.10;30.83;101671.41;5060760;28;45340;-59
2022/08/10 04:20:25;;;;;;;;;8.25;8.00;;;;;24.07;30.92;101671.59;5059965;28;46156;-60
2022/08/10 04:22:52;;;;;;;;;9.00;6.00;;;;;24.04;31.35;101674.44;5060500;28;45361;-60
2022/08/10 04:25:19;;;;;;;;;8.50;8.00;;;;;24.01;31.02;101672.78;5060596;28;45182;-60
2022/08/10 04:27:45;;;;;;;;;6.00;6.00;;;;;24.00;31.14;101679.13;5060423;28;45272;-60
2022/08/10 04:30:12;;;;;;;;;7.25;7.25;;;;;23.97;31.22;101680.13;5060491;28;45607;-60
2022/08/10 04:32:39;;;;;;;;;9.00;8.75;;;;;23.93;31.15;101675.91;5059875;28;45455;-60
2022/08/10 04:35:09;;;;;;;;;10.25;9.00;;;;;23.92;31.33;101674.16;5060301;28;45310;-60
2022/08/10 04:37:36;;;;;;;;;6.50;6.25;;;;;23.91;31.34;101674.22;5060183;28;45402;-60
2022/08/10 04:40:02;;;;;;;;;9.25;6.25;;;;;23.90;31.26;101676.06;5060078;28;45357;-60
2022/08/10 04:42:27;;;;;;;;;7.25;7.25;;;;;23.84;31.23;101673.72;5070632;28;45485;-60
2022/08/10 04:44:53;;;;;;;;;7.00;7.00;;;;;23.86;31.41;101674.47;5060321;28;45396;-60
2022/08/10 04:47:18;;;;;;;;;7.00;7.00;;;;;23.84;31.45;101676.41;5070763;28;45326;-60
2022/08/10 04:49:44;;;;;;;;;7.25;5.50;;;;;23.79;31.66;101670.41;5058190;28;47052;-60
2022/08/10 04:52:09;;;;;;;;;8.50;8.50;;;;;23.72;31.43;101669.88;5074481;28;45303;-60
2022/08/10 04:54:34;;;;;;;;;7.00;7.00;;;;;23.79;31.51;101681.16;5080630;28;45379;-60
2022/08/10 04:56:59;;;;;;;;;8.50;7.75;;;;;23.76;31.55;101686.66;5080313;28;45470;-60
2022/08/10 04:59:25;;;;;;;;;10.75;8.25;;;;;23.74;31.67;101684.09;5079994;28;45314;-60
2022/08/10 05:01:51;;;;;;;;;7.00;7.00;;;;;23.73;31.79;101695.75;5078935;28;45286;-59
2022/08/10 05:04:17;;;;;;;;;11.75;7.75;;;;;23.70;31.65;101696.78;5066219;28;45297;-60
2022/08/10 05:06:42;;;;;;;;;7.50;7.00;;;;;23.68;31.52;101690.66;5065814;28;45235;-60
2022/08/10 05:09:07;;;;;;;;;7.50;7.50;;;;;23.68;31.73;101690.66;5060255;28;45291;-59
2022/08/10 05:11:33;;;;;;;;;9.50;8.00;;;;;23.67;31.85;101696.09;5059892;28;45212;-60
2022/08/10 05:13:58;;;;;;;;;7.50;7.50;;;;;23.66;31.81;101689.00;5060001;28;45367;-60
2022/08/10 05:16:23;;;;;;;;;8.00;8.00;;;;;23.65;31.89;101698.88;5059554;28;47266;-60
2022/08/10 05:18:49;;;;;;;;;8.00;7.75;;;;;23.64;31.68;101697.13;5041158;28;52958;-60
2022/08/10 05:21:14;;;;;;;;;8.50;8.50;;;;;23.63;32.04;101695.38;5059550;28;45300;-60
2022/08/10 05:23:39;;;;;;;;;8.00;8.00;;;;;23.59;31.86;101688.47;5060076;28;45402;-60
2022/08/10 05:26:05;;;;;;;;;9.75;8.25;;;;;23.59;31.90;101691.16;5059582;28;48259;-60
2022/08/10 05:28:30;;;;;;;;;10.00;8.75;;;;;23.63;31.88;101699.91;5059693;28;45976;-60
2022/08/10 05:30:55;;;;;;;;;8.25;7.50;;;;;23.61;32.11;101691.06;5059463;28;45212;-60
2022/08/10 05:33:20;;;;;;;;;7.75;7.25;;;;;23.62;31.80;101704.41;5059932;28;45208;-60
2022/08/10 05:35:46;;;;;;;;;8.00;8.00;;;;;23.64;32.10;101712.38;5059403;28;45284;-60
2022/08/10 05:38:13;;;;;;;;;8.00;8.00;;;;;23.63;32.33;101711.47;5059656;28;45556;-60
2022/08/10 05:40:40;;;;;;;;;9.00;6.50;;;;;23.63;32.01;101706.13;5059279;28;45341;-60
2022/08/10 05:43:06;;;;;;;;;7.25;7.25;;;;;23.58;31.89;101700.13;5059690;28;45343;-60
2022/08/10 05:45:31;;;;;;;;;7.00;7.00;;;;;23.63;31.82;101707.94;5059477;28;45432;-60
2022/08/10 05:47:57;;;;;;;;;10.25;9.25;;;;;23.63;32.16;101706.13;5058046;28;45302;-60
2022/08/10 05:50:31;;;;;;;;;10.00;8.00;;;;;23.64;32.22;101710.53;5059118;28;45358;-60
2022/08/10 05:52:57;;;;;;;;;7.50;7.50;;;;;23.64;32.03;101702.50;5059455;28;45227;-60
2022/08/10 05:55:23;;;;;;;;;8.00;7.75;;;;;23.65;32.18;101698.00;5059205;28;45507;-60
2022/08/10 05:57:50;;;;;;;;;9.50;9.25;;;;;23.61;32.34;101702.66;5059067;28;45604;-60
2022/08/10 06:00:19;;;;;;;;;27.25;26.50;;;;;23.65;32.17;101708.75;5059248;28;45295;-60
2022/08/10 06:02:48;;;;;;;;;9.25;8.75;;;;;23.65;32.19;101706.91;5069438;28;45602;-60
2022/08/10 06:05:23;;;;;;;;;9.25;8.25;;;;;23.69;32.34;101708.47;5062421;28;45200;-60
2022/08/10 06:07:58;;;;;;;;;9.25;9.25;;;;;23.68;32.51;101709.44;5062018;28;45351;-60
2022/08/10 06:10:24;;;;;;;;;9.75;9.00;;;;;23.69;32.46;101716.53;5061140;28;45287;-60
2022/08/10 06:15:38;;;;;;;;;9.00;9.00;;;;;23.72;32.43;101714.63;5068488;28;45443;-60
2022/08/10 06:18:05;;;;;;;;;7.75;6.75;;;;;23.74;32.44;101718.09;5081188;28;45404;-60
2022/08/10 06:20:31;;;;;;;;;9.00;8.00;;;;;23.69;32.50;101711.16;5073592;28;45481;-60
2022/08/10 06:22:59;;;;;;;;;9.00;9.00;;;;;23.78;32.20;101712.47;5076420;28;45259;-60
2022/08/10 06:25:26;;;;;;;;;9.00;9.00;;;;;23.78;32.78;101716.97;5082719;28;45247;-60
2022/08/10 06:27:53;;;;;;;;;10.50;9.00;;;;;23.80;32.59;101715.94;5082455;28;45343;-60
2022/08/10 06:30:20;;;;;;;;;11.75;9.75;;;;;23.83;32.69;101717.59;5064534;28;45799;-60
2022/08/10 06:32:48;;;;;;;;;10.75;9.75;;;;;23.84;32.49;101720.19;5067081;28;45347;-60
2022/08/10 06:35:15;;;;;;;;;11.00;10.00;;;;;23.83;32.42;101717.59;5060754;28;45231;-60
2022/08/10 06:37:42;;;;;;;;;10.50;10.50;;;;;23.86;32.61;101722.78;5062139;28;46103;-60
2022/08/10 06:40:08;;;;;;;;;9.50;9.50;;;;;23.87;32.50;101727.19;5062344;28;45427;-60
2022/08/10 06:42:39;;;;;;;;;9.50;8.25;;;;;23.90;32.61;101735.09;5061927;28;45408;-60
2022/08/10 06:45:14;;;;;;;;;8.50;7.00;;;;;23.93;32.49;101729.59;5062171;28;45234;-60
2022/08/10 06:47:42;;;;;;;;;8.25;8.25;;;;;23.95;32.76;101727.69;5059968;28;47001;-60
2022/08/10 06:50:25;;;;;;;;;10.00;8.50;;;;;23.98;32.69;101726.66;5065482;28;45725;-60
2022/08/10 06:52:52;;;;;;;;;10.25;9.75;;;;;24.00;32.93;101727.44;5081286;27;45502;-60
2022/08/10 06:55:19;;;;;;;;;10.75;8.25;;;;;23.99;32.78;101721.19;5068697;28;45347;-60
2022/08/10 06:57:47;;;;;;;;;8.00;8.00;;;;;24.04;32.98;101734.38;5061582;28;46436;-60
2022/08/10 07:00:13;;;;;;;;;9.00;9.00;;;;;24.06;32.59;101732.44;5061737;28;45256;-60
2022/08/10 07:02:48;;;;;;;;;9.75;8.25;;;;;24.09;32.69;101729.59;5069898;28;45398;-60
2022/08/10 07:05:23;;;;;;;;;8.00;8.00;;;;;24.09;32.85;101723.38;5061445;28;45288;-60
2022/08/10 07:07:56;;;;;;;;;11.00;10.00;;;;;24.14;32.63;101727.53;5061480;28;46292;-60
2022/08/10 07:10:24;;;;;;;;;11.00;9.25;;;;;24.17;32.59;101723.81;5061608;28;45391;-60
2022/08/10 07:12:51;;;;;;;;;10.75;10.75;;;;;24.18;32.75;101728.22;5059610;28;45571;-60
2022/08/10 07:15:19;;;;;;;;;9.50;8.50;;;;;24.24;32.62;101719.81;5077753;28;45347;-60
2022/08/10 07:17:46;;;;;;;;;9.50;8.25;;;;;24.25;32.62;101720.69;5070214;28;46355;-60
2022/08/10 07:20:17;;;;;;;;;11.25;10.00;;;;;24.28;32.38;101712.47;5060990;28;45531;-60
2022/08/10 07:22:49;;;;;;;;;10.25;10.00;;;;;24.32;32.65;101719.38;5068640;28;45410;-60
2022/08/10 07:25:19;;;;;;;;;14.50;11.75;;;;;24.34;32.50;101718.34;5061193;28;45481;-60
2022/08/10 07:27:46;;;;;;;;;9.00;9.00;;;;;24.32;32.58;101709.50;5056670;28;47064;-60
2022/08/10 07:30:11;;;;;;;;;10.75;9.75;;;;;24.43;32.43;101725.00;5076821;28;46135;-60
2022/08/10 07:32:40;;;;;;;;;11.50;11.25;;;;;24.47;32.52;101723.00;5061057;28;45485;-60
2022/08/10 07:35:10;;;;;;;;;10.00;9.75;;;;;24.52;32.48;101726.28;5060881;28;45375;-60
2022/08/10 07:37:37;;;;;;;;;12.50;10.75;;;;;24.55;32.59;101717.19;5060838;28;46349;-60
2022/08/10 07:40:04;;;;;;;;;10.25;10.25;;;;;24.59;32.85;101713.38;5061121;28;45383;-60
2022/08/10 07:42:32;;;;;;;;;11.75;10.25;;;;;24.65;32.18;101721.09;5059721;28;45281;-60
2022/08/10 07:44:58;;;;;;;;;11.25;10.00;;;;;24.69;32.57;101721.78;5061033;28;45429;-60
2022/08/10 07:47:29;;;;;;;;;11.25;10.25;;;;;24.75;32.55;101724.13;5060727;28;45316;-62
2022/08/10 07:49:58;;;;;;;;;13.25;12.25;;;;;24.78;32.57;101726.63;5060761;28;45368;-60
2022/08/10 07:52:24;;;;;;;;;12.25;11.25;;;;;24.81;32.38;101721.06;5077235;28;45425;-61
2022/08/10 07:54:52;;;;;;;;;7.25;6.75;;;;;24.89;32.11;101726.00;5070094;28;45438;-61
2022/08/10 07:57:24;;;;;;;;;9.75;8.50;;;;;24.94;32.12;101726.59;5077424;28;46347;-61
2022/08/10 08:00:01;;;;;;;;;11.00;11.00;;;;;24.99;32.16;101733.44;5080732;28;45465;-61
2022/08/10 08:02:35;;;;;;;;;9.50;9.50;;;;;25.04;32.56;101726.91;5075271;28;45354;-61
2022/08/10 08:05:05;;;;;;;;;8.75;8.00;;;;;25.02;32.26;101729.69;5069225;28;45401;-61
2022/08/10 08:07:31;;;;;;;;;11.25;9.00;;;;;25.14;32.07;101738.84;5060733;28;45359;-60
2022/08/10 08:09:59;;;;;;;;;14.00;12.25;;;;;25.20;32.24;101738.47;5060587;28;45308;-61
2022/08/10 08:12:26;;;;;;;;;9.25;9.25;;;;;25.26;32.01;101743.47;5060788;28;45291;-61
2022/08/10 08:14:52;;;;;;;;;10.00;9.25;;;;;25.33;32.20;101740.41;5060568;28;45483;-61
2022/08/10 08:17:20;;;;;;;;;8.00;7.75;;;;;25.38;32.19;101735.66;5060422;28;46235;-61
2022/08/10 08:19:49;;;;;;;;;11.25;11.00;;;;;25.43;32.32;101737.09;5058669;28;45442;-60
2022/08/10 08:22:16;;;;;;;;;7.50;7.00;;;;;25.49;31.88;101732.31;5060577;28;45321;-61
2022/08/10 08:24:43;;;;;;;;;10.75;9.50;;;;;25.54;32.20;101733.75;5058374;28;45328;-61
2022/08/10 08:27:11;;;;;;;;;9.25;9.25;;;;;25.60;31.90;101729.81;5060336;28;46210;-61
2022/08/10 08:29:40;;;;;;;;;10.25;10.25;;;;;25.64;32.09;101731.34;5059960;28;45474;-61
2022/08/10 08:32:06;;;;;;;;;12.00;11.75;;;;;25.72;31.72;101722.78;5060290;28;45322;-61
2022/08/10 08:34:35;;;;;;;;;12.50;11.00;;;;;25.77;31.95;101720.66;5071958;28;45521;-61
2022/08/10 08:37:03;;;;;;;;;12.25;12.00;;;;;25.84;31.52;101724.69;5060294;28;46378;-61
2022/08/10 08:39:35;;;;;;;;;11.00;9.25;;;;;25.84;31.60;101702.31;5060116;28;45384;-61
2022/08/10 08:42:25;;;;;;;;;10.00;10.00;;;;;25.99;31.42;101713.91;5060147;28;45206;-61
2022/08/10 08:45:18;;;;;;;;;9.75;9.75;;;;;26.05;31.54;101716.19;5066785;28;45711;-61
2022/08/10 08:48:14;;;;;;;;;10.50;10.00;;;;;26.12;31.50;101714.88;5060009;28;46787;-61
2022/08/10 08:51:07;;;;;;;;;11.75;10.25;;;;;26.20;31.93;101717.94;5066670;28;45517;-61
2022/08/10 08:53:44;;;;;;;;;13.25;11.25;;;;;26.29;31.87;101705.72;5080279;28;45512;-60
2022/08/10 08:56:47;;;;;;;;;12.00;10.75;;;;;26.37;31.34;101705.19;5080364;28;45489;-61
2022/08/10 08:59:36;;;;;;;;;13.50;12.00;;;;;26.40;31.25;101694.22;5079862;28;45595;-60
2022/08/10 09:02:45;;;;;;;;;8.75;8.75;;;;;26.56;31.55;101704.84;5077998;28;45282;-61
2022/08/10 09:05:22;;;;;;;;;12.00;12.00;;;;;26.66;31.56;101699.69;5070059;28;45180;-60
2022/08/10 09:07:56;;;;;;;;;10.50;9.50;;;;;26.74;30.93;101700.94;5059982;28;45325;-60
2022/08/10 09:10:44;;;;;;;;;12.00;11.00;;;;;26.83;31.44;101699.44;5059775;28;46051;-60
2022/08/10 09:13:28;;;;;;;;;10.50;10.25;;;;;26.92;31.10;101698.81;5058310;28;45393;-60
2022/08/10 09:16:31;;;;;;;;;11.00;11.00;;;;;27.04;30.83;101691.72;5058387;28;45406;-61
2022/08/10 09:19:15;;;;;;;;;13.25;10.00;;;;;27.16;31.45;101689.16;5067185;28;45410;-61
2022/08/10 09:22:02;;;;;;;;;10.00;10.00;;;;;27.27;30.78;101696.47;5079878;27;47133;-61
2022/08/10 09:25:01;;;;;;;;;13.25;12.00;;;;;27.37;31.26;101693.03;5079823;27;45398;-61
2022/08/10 09:28:03;;;;;;;;;11.75;10.75;;;;;27.50;31.00;101693.03;5080022;27;45274;-61
2022/08/10 09:30:50;;;;;;;;;13.00;12.00;;;;;27.64;30.47;101691.19;5068250;28;45516;-61
2022/08/10 09:33:44;;;;;;;;;11.00;11.00;;;;;27.72;30.98;101683.38;5079570;27;46606;-61
2022/08/10 09:36:22;;;;;;;;;13.25;12.00;;;;;27.87;30.66;101685.00;5080468;28;45323;-61
2022/08/10 09:39:26;;;;;;;;;12.25;11.00;;;;;28.01;30.41;101677.69;5083604;28;45430;-61
2022/08/10 09:42:04;;;;;;;;;11.50;10.50;;;;;28.13;30.03;101682.22;5059555;28;45243;-61
2022/08/10 09:44:38;;;;;;;;;13.25;12.00;;;;;28.25;30.22;101676.91;5083031;28;46168;-61
2022/08/10 09:47:18;;;;;;;;;12.75;11.50;;;;;28.39;30.16;101679.44;5083150;28;45231;-61
2022/08/10 09:50:01;;;;;;;;;13.25;10.00;;;;;28.52;29.89;101676.66;5080410;28;45435;-61
2022/08/10 09:53:04;;;;;;;;;10.50;10.25;;;;;28.65;30.05;101671.16;5079570;28;45523;-61
2022/08/10 09:55:56;;;;;;;;;10.25;9.25;;;;;28.79;30.21;101676.44;5082907;27;46327;-61
2022/08/10 09:58:41;;;;;;;;;8.50;8.50;;;;;28.95;29.82;101675.22;5083049;28;45235;-61
2022/08/10 10:01:23;;;;;;;;;12.50;11.25;;;;;29.09;29.65;101672.28;5082698;28;45407;-62
2022/08/10 10:04:21;;;;;;;;;12.00;10.50;;;;;29.22;29.52;101661.38;5066185;27;45334;-62
2022/08/10 10:06:46;;;;;;;;;11.25;11.25;;;;;29.42;29.53;101665.25;5062602;28;45401;-61
2022/08/10 10:09:37;;;;;;;;;11.25;11.25;;;;;29.56;29.43;101665.94;5062794;28;45279;-61
2022/08/10 10:12:33;;;;;;;;;10.00;10.00;;;;;29.72;28.93;101660.16;5062672;28;45429;-61
2022/08/10 10:15:19;;;;;;;;;12.25;11.75;;;;;29.92;29.10;101654.00;5062079;28;45518;-61
2022/08/10 10:18:04;;;;;;;;;10.50;10.50;;;;;30.10;29.16;101648.91;5061788;28;45664;-61
2022/08/10 10:20:39;;;;;;;;;10.00;10.00;;;;;30.29;28.82;101647.38;5060927;28;45478;-61
2022/08/10 10:23:23;;;;;;;;;11.50;9.25;;;;;30.48;29.01;101652.13;5062423;28;45339;-61
2022/08/10 10:26:12;;;;;;;;;14.25;11.50;;;;;30.65;28.70;101634.41;5062307;28;45587;-61
2022/08/10 10:28:56;;;;;;;;;9.25;9.25;;;;;30.86;28.41;101634.41;5062437;28;45301;-61
2022/08/10 10:31:34;;;;;;;;;12.25;11.00;;;;;31.08;28.34;101640.69;5061796;28;45368;-61
2022/08/10 10:34:28;;;;;;;;;8.50;7.75;;;;;31.30;28.53;101633.38;5062191;28;45237;-61
2022/08/10 10:36:55;;;;;;;;;10.75;9.00;;;;;31.49;27.56;101635.31;5070472;28;45241;-60
2022/08/10 10:39:23;;;;;;;;;13.00;13.00;;;;;31.75;28.18;101636.56;5082323;28;45430;-60
2022/08/10 10:42:01;;;;;;;;;11.00;9.00;;;;;32.08;28.10;101629.03;5082247;28;45345;-61
2022/08/10 10:44:51;;;;;;;;;10.75;9.50;;;;;32.51;27.73;101629.63;5082380;28;45326;-61
2022/08/10 10:47:22;;;;;;;;;9.50;9.50;;;;;33.08;27.84;101633.41;5081536;28;45600;-61
2022/08/10 10:49:56;;;;;;;;;10.25;10.25;;;;;33.66;28.17;101633.16;5075542;28;46455;-62
2022/08/10 10:52:49;;;;;;;;;10.75;10.75;;;;;34.30;28.14;101627.72;5080609;28;46395;-62
2022/08/10 10:55:27;;;;;;;;;8.75;8.75;;;;;35.03;27.81;101627.59;5082309;28;45325;-61
2022/08/10 10:58:01;;;;;;;;;9.00;9.00;;;;;35.65;27.50;101624.66;5081961;28;45528;-61
2022/08/10 11:00:43;;;;;;;;;8.25;8.25;;;;;36.22;27.13;101618.44;5066834;28;46485;-61
2022/08/10 11:03:15;;;;;;;;;9.00;9.00;;;;;36.83;26.46;101615.34;5070511;28;45264;-61
2022/08/10 11:06:15;;;;;;;;;8.75;8.00;;;;;37.54;26.00;101620.94;5061546;28;45363;-61
2022/08/10 11:08:46;;;;;;;;;8.50;8.25;;;;;38.13;26.24;101616.84;5041252;28;45515;-61
2022/08/10 11:11:19;;;;;;;;;12.75;10.00;;;;;38.70;25.43;101620.13;5061404;28;47323;-61
2022/08/10 11:14:07;;;;;;;;;10.50;10.50;;;;;39.30;25.29;101609.19;5061651;28;45279;-62
2022/08/10 11:16:52;;;;;;;;;10.00;10.00;;;;;39.84;24.72;101601.56;5061549;28;45315;-61
2022/08/10 11:19:27;;;;;;;;;8.75;8.00;;;;;40.27;23.91;101612.59;5061329;28;45343;-61
2022/08/10 11:22:19;;;;;;;;;8.00;7.25;;;;;40.69;24.09;101604.47;5060084;28;47206;-60
2022/08/10 11:24:58;;;;;;;;;9.00;9.00;;;;;41.14;23.31;101609.63;5061415;28;45331;-61
2022/08/10 11:27:47;;;;;;;;;11.00;9.50;;;;;41.57;23.30;101604.75;5066741;28;45350;-61
2022/08/10 11:30:19;;;;;;;;;8.75;7.25;;;;;41.98;23.02;101599.31;5076870;28;45501;-59
2022/08/10 11:33:05;;;;;;;;;12.25;9.25;;;;;42.39;22.85;101596.38;5060968;28;45467;-59
2022/08/10 11:35:45;;;;;;;;;8.00;8.00;;;;;42.76;21.68;101592.28;5061096;28;45286;-60
2022/08/10 11:38:40;;;;;;;;;6.50;6.50;;;;;43.12;21.95;101588.16;5061351;28;45216;-60
2022/08/10 11:41:38;;;;;;;;;9.25;8.00;;;;;43.43;21.48;101592.91;5060971;28;45329;-60
2022/08/10 11:44:26;;;;;;;;;12.00;10.50;;;;;43.75;20.96;101586.56;5034833;28;46638;-60
2022/08/10 11:47:15;;;;;;;;;9.50;8.00;;;;;43.94;20.50;101587.50;5061101;28;45345;-60
2022/08/10 11:49:48;;;;;;;;;9.75;8.25;;;;;44.10;19.87;101580.59;5076440;28;45336;-61
2022/08/10 11:52:29;;;;;;;;;7.50;7.50;;;;;44.20;19.81;101582.84;5073274;28;45468;-60